Time;durP1;ratioP1;P1;durP2;ratioP2;P2;SDS_P1;SDS_P2;PMS_P1;PMS_P2;Temp;Humidity;BMP_temperature;BMP_pressure;BME280_temperature;BME280_humidity;BME280_pressure;Samples;Min_cycle;Max_cycle;Signal;HPM_P1;HPM_P2
2021/01/08 00:02:31;;;;;;;46.67;21.67;;;;;;;3.33;100.00;94374.38;10528262;28;20731;-75
2021/01/08 00:07:33;;;;;;;45.13;23.23;;;;;;;3.40;100.00;94378.50;10528940;28;20391;-74
2021/01/08 00:12:34;;;;;;;50.03;22.73;;;;;;;3.52;100.00;94382.97;10524688;28;20028;-75
2021/01/08 00:17:35;;;;;;;46.63;22.48;;;;;;;3.41;100.00;94376.66;10486405;28;20033;-75
2021/01/08 00:22:35;;;;;;;35.17;17.50;;;;;;;3.49;100.00;94360.31;10486630;28;20063;-76
2021/01/08 00:27:37;;;;;;;44.83;20.57;;;;;;;3.45;100.00;94345.09;10487466;28;20024;-76
2021/01/08 00:32:37;;;;;;;41.70;21.30;;;;;;;3.40;100.00;94348.47;10485756;28;20337;-75
2021/01/08 00:37:37;;;;;;;37.93;19.93;;;;;;;3.39;100.00;94354.81;10485972;28;20043;-75
2021/01/08 00:42:38;;;;;;;36.43;17.33;;;;;;;3.35;100.00;94372.25;10469069;28;20266;-75
2021/01/08 00:47:38;;;;;;;44.27;19.83;;;;;;;3.33;100.00;94361.09;10488376;28;20309;-75
2021/01/08 00:52:38;;;;;;;30.60;16.63;;;;;;;3.39;100.00;94352.97;10493709;28;20282;-75
2021/01/08 00:57:39;;;;;;;40.97;19.40;;;;;;;3.41;100.00;94352.75;10535356;28;20085;-75
2021/01/08 01:02:39;;;;;;;48.80;21.67;;;;;;;3.28;100.00;94360.97;10535334;28;20054;-76
2021/01/08 01:07:40;;;;;;;41.33;19.10;;;;;;;3.39;100.00;94363.59;10535142;28;20051;-76
2021/01/08 01:12:40;;;;;;;39.43;18.60;;;;;;;3.32;100.00;94352.31;10535543;28;20031;-75
2021/01/08 01:17:41;;;;;;;44.10;19.35;;;;;;;3.40;100.00;94345.81;10534770;28;20780;-86
2021/01/08 01:22:41;;;;;;;45.83;20.48;;;;;;;3.48;100.00;94331.34;10524888;28;20052;-84
2021/01/08 01:27:42;;;;;;;58.23;26.73;;;;;;;3.45;100.00;94337.94;10543222;28;20056;-85
2021/01/08 01:32:42;;;;;;;55.73;24.57;;;;;;;3.37;100.00;94351.59;10524847;28;20274;-85
2021/01/08 01:37:42;;;;;;;49.20;21.50;;;;;;;3.50;100.00;94335.38;10524680;28;20282;-85
2021/01/08 01:42:43;;;;;;;41.10;18.33;;;;;;;3.53;100.00;94329.59;10524780;28;20359;-84
2021/01/08 01:47:43;;;;;;;43.33;18.77;;;;;;;3.58;100.00;94315.56;10542529;28;20031;-84
2021/01/08 01:52:43;;;;;;;42.70;19.73;;;;;;;3.55;100.00;94327.47;10542570;28;20301;-84
2021/01/08 01:57:44;;;;;;;44.20;20.50;;;;;;;3.58;100.00;94327.00;10523890;28;20289;-84
2021/01/08 02:02:58;;;;;;;49.40;23.30;;;;;;;3.59;100.00;94319.84;10541290;28;20279;-84
2021/01/08 02:08:22;;;;;;;49.75;22.58;;;;;;;3.51;100.00;94310.41;10521118;28;20262;-84
2021/01/08 02:13:28;;;;;;;46.47;22.35;;;;;;;3.61;100.00;94311.63;10521633;28;20019;-84
2021/01/08 02:18:29;;;;;;;45.38;20.50;;;;;;;3.59;100.00;94314.53;10535627;28;20135;-83
2021/01/08 02:23:42;;;;;;;47.83;21.20;;;;;;;3.69;100.00;94308.59;10540259;28;20119;-83
2021/01/08 02:28:42;;;;;;;46.90;21.52;;;;;;;3.47;100.00;94301.31;10522333;28;20028;-82
2021/01/08 02:33:43;;;;;;;49.92;22.25;;;;;;;3.28;100.00;94279.47;10540405;28;20115;-83
2021/01/08 02:38:48;;;;;;;56.35;24.35;;;;;;;3.45;100.00;94266.22;10540324;28;20502;-83
2021/01/08 02:43:50;;;;;;;48.05;22.67;;;;;;;3.55;100.00;94258.41;10522166;28;20118;-82
2021/01/08 02:48:50;;;;;;;44.50;20.42;;;;;;;3.61;100.00;94263.81;10540093;28;20031;-83
2021/01/08 02:53:51;;;;;;;45.40;21.80;;;;;;;3.54;100.00;94240.03;10521785;28;20028;-82
2021/01/08 02:58:53;;;;;;;39.85;18.38;;;;;;;3.59;100.00;94258.72;10539667;28;20119;-83
2021/01/08 03:03:58;;;;;;;51.83;23.08;;;;;;;3.65;100.00;94249.00;10539907;28;20027;-83
2021/01/08 03:08:59;;;;;;;54.03;23.35;;;;;;;3.55;100.00;94252.28;10539211;28;20028;-85
2021/01/08 03:14:00;;;;;;;50.90;23.70;;;;;;;3.65;100.00;94251.66;10537888;28;20034;-84
2021/01/08 03:19:00;;;;;;;48.25;24.08;;;;;;;3.66;100.00;94246.09;10538772;28;20059;-84
2021/01/08 03:24:01;;;;;;;47.40;22.13;;;;;;;3.63;100.00;94243.09;10538666;28;20028;-85
2021/01/08 03:29:02;;;;;;;44.63;21.05;;;;;;;3.65;100.00;94231.19;10538420;28;20096;-85
2021/01/08 03:34:02;;;;;;;47.40;21.08;;;;;;;3.59;100.00;94224.19;10519931;28;20054;-84
2021/01/08 03:39:03;;;;;;;43.67;19.90;;;;;;;3.34;100.00;94225.38;10538512;28;20032;-84
2021/01/08 03:44:04;;;;;;;48.22;21.50;;;;;;;3.31;100.00;94211.75;10537756;28;20266;-85
2021/01/08 03:49:07;;;;;;;49.00;21.52;;;;;;;3.26;100.00;94196.56;10519539;28;20035;-85
2021/01/08 03:54:08;;;;;;;45.83;19.60;;;;;;;3.22;100.00;94182.97;10537457;28;20032;-83
2021/01/08 03:59:08;;;;;;;43.88;20.33;;;;;;;3.27;100.00;94186.75;10537502;28;20028;-82
2021/01/08 04:04:08;;;;;;;42.57;19.77;;;;;;;3.33;100.00;94159.22;10519327;28;20031;-84
2021/01/08 04:09:09;;;;;;;46.63;19.87;;;;;;;3.39;100.00;94193.59;10536997;28;20016;-84
2021/01/08 04:14:09;;;;;;;49.17;20.50;;;;;;;3.35;100.00;94147.31;10536391;28;20031;-84
2021/01/08 04:19:10;;;;;;;46.57;21.30;;;;;;;3.37;100.00;94128.50;10534831;28;20040;-84
2021/01/08 04:24:12;;;;;;;47.15;20.83;;;;;;;3.20;100.00;94163.81;10550370;28;20327;-83
2021/01/08 04:29:12;;;;;;;45.10;21.13;;;;;;;3.23;100.00;94130.66;10536688;28;20479;-83
2021/01/08 04:34:13;;;;;;;45.33;21.27;;;;;;;3.33;100.00;94130.00;10536552;28;20165;-84
2021/01/08 04:39:13;;;;;;;46.47;22.20;;;;;;;3.11;100.00;94138.69;10536454;28;20266;-84
2021/01/08 04:44:14;;;;;;;38.20;16.43;;;;;;;3.29;100.00;94118.25;10536227;28;20974;-82
2021/01/08 04:49:15;;;;;;;35.22;17.40;;;;;;;3.25;100.00;94124.06;10536685;28;20465;-83
2021/01/08 04:54:15;;;;;;;32.78;16.77;;;;;;;3.44;100.00;94107.88;10535940;28;20085;-83
2021/01/08 04:59:16;;;;;;;37.63;17.73;;;;;;;3.29;100.00;94062.50;10518511;28;20016;-83
2021/01/08 05:04:17;;;;;;;42.92;18.83;;;;;;;3.31;100.00;94084.28;10517627;28;20020;-84
2021/01/08 05:09:17;;;;;;;33.53;15.05;;;;;;;3.34;100.00;94083.81;10535889;28;20047;-84
2021/01/08 05:14:18;;;;;;;33.30;14.47;;;;;;;3.32;100.00;94115.94;10499558;28;20097;-85
2021/01/08 05:19:18;;;;;;;38.90;17.50;;;;;;;3.38;100.00;94090.25;10493625;28;20295;-85
2021/01/08 05:24:22;;;;;;;38.27;18.87;;;;;;;3.25;100.00;94086.88;10501104;28;20031;-85
2021/01/08 05:29:27;;;;;;;44.03;20.70;;;;;;;3.50;100.00;94101.59;10534332;28;20025;-83
2021/01/08 05:34:28;;;;;;;50.90;23.00;;;;;;;3.45;100.00;94090.88;10526872;28;20063;-73
2021/01/08 05:39:29;;;;;;;58.70;25.02;;;;;;;3.48;100.00;94087.75;10517255;28;20051;-73
2021/01/08 05:44:30;;;;;;;49.92;23.30;;;;;;;3.56;100.00;94083.88;10535287;28;20108;-73
2021/01/08 05:49:32;;;;;;;55.00;23.23;;;;;;;3.48;100.00;94077.09;10534750;28;20024;-74
2021/01/08 05:54:35;;;;;;;50.40;23.58;;;;;;;3.64;100.00;94085.28;10534857;28;20043;-72
2021/01/08 05:59:37;;;;;;;47.35;21.27;;;;;;;3.59;100.00;94073.53;10502519;28;20060;-74
2021/01/08 06:04:39;;;;;;;43.60;21.85;;;;;;;3.59;100.00;94075.41;10491979;28;20037;-74
2021/01/08 06:09:48;;;;;;;43.90;21.75;;;;;;;3.52;100.00;94088.06;10516051;28;20050;-74
2021/01/08 06:14:50;;;;;;;54.92;22.13;;;;;;;3.48;100.00;94077.09;10532696;28;20027;-73
2021/01/08 06:20:01;;;;;;;60.63;28.58;;;;;;;3.42;100.00;94062.97;10508917;28;20124;-74
2021/01/08 06:25:02;;;;;;;60.53;27.85;;;;;;;3.47;100.00;94072.84;10491254;28;20450;-75
2021/01/08 06:30:06;;;;;;;49.17;23.95;;;;;;;3.56;100.00;94062.63;10489144;28;20032;-75
2021/01/08 06:35:08;;;;;;;46.75;20.85;;;;;;;3.69;100.00;94058.78;10490687;28;20027;-74
2021/01/08 06:40:11;;;;;;;47.70;20.65;;;;;;;3.65;100.00;94063.78;10492067;28;20031;-74
2021/01/08 06:45:14;;;;;;;45.38;19.58;;;;;;;3.56;100.00;94082.00;10515451;28;20073;-74
2021/01/08 06:50:17;;;;;;;54.28;23.85;;;;;;;3.49;100.00;94077.91;10532787;28;20031;-74
2021/01/08 06:55:19;;;;;;;53.72;24.65;;;;;;;3.48;100.00;94081.63;10513451;28;20027;-74
2021/01/08 07:00:30;;;;;;;62.88;27.10;;;;;;;3.65;100.00;94069.09;10531825;28;20332;-75
2021/01/08 07:05:31;;;;;;;64.35;29.40;;;;;;;3.70;100.00;94045.25;10532343;28;20016;-76
2021/01/08 07:10:34;;;;;;;63.90;27.23;;;;;;;3.68;100.00;94083.75;10532013;28;20035;-76
2021/01/08 07:15:35;;;;;;;57.40;26.38;;;;;;;3.73;100.00;94091.78;10531727;28;20032;-77
2021/01/08 07:20:36;;;;;;;70.38;28.15;;;;;;;3.65;100.00;94081.59;10500691;28;20041;-79
2021/01/08 07:25:39;;;;;;;61.57;26.67;;;;;;;3.82;100.00;94077.00;10491001;28;20036;-77
2021/01/08 07:30:40;;;;;;;54.42;26.00;;;;;;;3.69;100.00;94096.00;10490164;28;20029;-77
2021/01/08 07:35:45;;;;;;;68.43;31.07;;;;;;;3.92;100.00;94060.38;10504440;28;20533;-78
2021/01/08 07:40:48;;;;;;;58.97;27.50;;;;;;;3.81;100.00;94061.31;10470774;28;20274;-78
2021/01/08 07:45:59;;;;;;;58.40;27.23;;;;;;;3.73;100.00;94044.75;10471086;28;20040;-78
2021/01/08 07:51:06;;;;;;;72.40;29.40;;;;;;;3.96;100.00;94042.09;10487763;28;20086;-78
2021/01/08 07:56:07;;;;;;;59.80;27.20;;;;;;;4.21;100.00;94034.38;10470222;28;20525;-79
2021/01/08 08:01:10;;;;;;;61.15;28.58;;;;;;;4.01;100.00;94037.63;10489190;28;20096;-77
2021/01/08 08:06:10;;;;;;;64.57;30.33;;;;;;;4.03;100.00;94010.78;10492135;28;20051;-77
2021/01/08 08:11:11;;;;;;;72.75;31.38;;;;;;;4.35;100.00;94010.03;10496372;28;20103;-77
2021/01/08 08:16:12;;;;;;;72.07;29.50;;;;;;;4.09;100.00;94033.75;10488781;28;20035;-77
2021/01/08 08:21:12;;;;;;;64.55;29.10;;;;;;;4.39;100.00;94001.31;10488572;28;20047;-78
2021/01/08 08:26:13;;;;;;;62.97;30.03;;;;;;;4.69;100.00;93985.84;10509772;28;20021;-76
2021/01/08 08:31:14;;;;;;;59.45;28.17;;;;;;;4.73;100.00;93992.25;10487831;28;20029;-78
2021/01/08 08:36:20;;;;;;;70.45;29.40;;;;;;;4.76;100.00;93991.78;10500953;28;20027;-77
2021/01/08 08:41:21;;;;;;;75.68;31.50;;;;;;;5.02;100.00;93981.28;10505174;28;20055;-77
2021/01/08 08:46:21;;;;;;;79.28;32.10;;;;;;;5.03;100.00;93970.38;10478624;28;20115;-77
2021/01/08 08:51:25;;;;;;;77.50;33.55;;;;;;;4.91;100.00;93969.75;10520767;28;20089;-77
2021/01/08 08:56:25;;;;;;;73.90;32.15;;;;;;;4.82;100.00;93980.09;10506019;28;20128;-77
2021/01/08 09:01:42;;;;;;;81.35;34.83;;;;;;;4.70;100.00;93974.16;10524125;28;20034;-77
2021/01/08 09:06:45;;;;;;;94.78;36.30;;;;;;;4.65;100.00;93960.78;10525325;28;20066;-77
2021/01/08 09:12:06;;;;;;;83.30;36.30;;;;;;;4.81;100.00;93965.16;10530467;28;20496;-77
2021/01/08 09:17:14;;;;;;;89.60;34.88;;;;;;;4.82;100.00;93966.78;10534684;28;20459;-79
2021/01/08 09:22:15;;;;;;;85.30;34.47;;;;;;;4.83;100.00;93971.06;10534795;28;20159;-77
2021/01/08 09:27:16;;;;;;;93.50;35.10;;;;;;;4.88;100.00;93960.41;10513655;28;20084;-78
2021/01/08 09:32:31;;;;;;;83.07;36.03;;;;;;;5.22;100.00;93960.09;10500137;28;20028;-79
2021/01/08 09:37:49;;;;;;;82.45;35.22;;;;;;;5.28;100.00;93951.06;10490620;28;20812;-76
2021/01/08 09:42:50;;;;;;;83.53;38.10;;;;;;;5.22;100.00;93964.63;10492227;28;20032;-77
2021/01/08 09:47:53;;;;;;;93.55;39.55;;;;;;;5.47;100.00;93954.09;10492413;28;20024;-75
2021/01/08 09:52:58;;;;;;;78.68;35.03;;;;;;;5.97;100.00;93937.72;10504965;28;20028;-75
2021/01/08 09:58:00;;;;;;;72.65;35.88;;;;;;;6.33;100.00;93935.94;10487633;28;20163;-76
2021/01/08 10:03:02;;;;;;;63.05;30.45;;;;;;;6.67;100.00;93911.38;10491206;28;20455;-75
2021/01/08 10:08:04;;;;;;;69.38;34.33;;;;;;;6.79;100.00;93867.56;10491335;28;20052;-76
2021/01/08 10:13:07;;;;;;;62.95;31.40;;;;;;;6.65;100.00;93889.47;10489763;28;20086;-76
2021/01/08 10:18:15;;;;;;;61.90;30.88;;;;;;;6.78;100.00;93871.28;10496561;28;20036;-76
2021/01/08 10:23:20;;;;;;;58.50;27.88;;;;;;;7.31;100.00;93869.00;10506373;28;20491;-76
2021/01/08 10:28:24;;;;;;;57.38;29.65;;;;;;;7.61;100.00;93845.84;10472610;28;20130;-76
2021/01/08 10:33:25;;;;;;;48.55;25.05;;;;;;;8.00;100.00;93849.63;10504006;28;20073;-76
2021/01/08 10:38:25;;;;;;;56.33;25.35;;;;;;;8.29;100.00;93838.97;10512262;28;20111;-76
2021/01/08 10:43:26;;;;;;;50.15;24.33;;;;;;;8.87;100.00;93848.91;10500996;28;20407;-77
2021/01/08 10:48:27;;;;;;;39.55;20.17;;;;;;;9.91;100.00;93808.97;10489058;28;20136;-76
2021/01/08 10:53:27;;;;;;;33.37;18.50;;;;;;;10.47;100.00;93794.97;10488951;28;20111;-75
2021/01/08 10:58:30;;;;;;;30.98;17.40;;;;;;;10.72;100.00;93807.94;10487543;28;20024;-77
2021/01/08 11:03:30;;;;;;;37.40;16.45;;;;;;;10.94;100.00;93793.03;10487776;28;20037;-77
2021/01/08 11:08:30;;;;;;;37.17;16.67;;;;;;;11.15;100.00;93774.63;10488196;28;20483;-77
2021/01/08 11:13:31;;;;;;;30.67;15.80;;;;;;;11.16;100.00;93788.84;10488501;28;20377;-76
2021/01/08 11:18:31;;;;;;;39.13;17.40;;;;;;;10.77;100.00;93783.66;10488155;28;20423;-77
2021/01/08 11:23:32;;;;;;;32.63;16.97;;;;;;;10.08;100.00;93745.91;10495712;28;20039;-76
2021/01/08 11:28:32;;;;;;;32.27;16.93;;;;;;;10.03;100.00;93744.13;10490257;28;20032;-75
2021/01/08 11:33:32;;;;;;;30.73;16.50;;;;;;;9.63;100.00;93722.19;10522097;28;20274;-76
2021/01/08 11:38:33;;;;;;;32.58;17.73;;;;;;;9.50;100.00;93741.69;10490160;28;20783;-75
2021/01/08 11:43:34;;;;;;;38.17;16.35;;;;;;;9.60;100.00;93738.88;10499581;28;20833;-75
2021/01/08 11:48:34;;;;;;;35.30;17.53;;;;;;;9.41;100.00;93723.56;10486032;28;20036;-76
2021/01/08 11:53:34;;;;;;;34.40;18.60;;;;;;;9.32;100.00;93730.69;10485726;28;20808;-76
2021/01/08 11:58:39;;;;;;;32.73;18.37;;;;;;;9.39;100.00;93717.72;10486187;28;20032;-77
2021/01/08 12:03:39;;;;;;;41.45;19.77;;;;;;;9.22;100.00;93717.41;10468791;28;20062;-77
2021/01/08 12:08:40;;;;;;;41.55;23.80;;;;;;;8.58;100.00;93720.34;10469417;28;20581;-77
2021/01/08 12:13:42;;;;;;;38.72;21.58;;;;;;;8.59;100.00;93710.44;10486580;28;20847;-76
2021/01/08 12:18:42;;;;;;;36.22;21.00;;;;;;;8.33;100.00;93735.59;10486069;28;20146;-76
2021/01/08 12:23:43;;;;;;;38.97;21.73;;;;;;;7.87;100.00;93719.97;10486669;28;20041;-76
2021/01/08 12:28:44;;;;;;;42.28;21.80;;;;;;;8.55;100.00;93711.03;10485902;28;20290;-76
2021/01/08 12:33:45;;;;;;;40.55;22.55;;;;;;;9.00;100.00;93702.72;10503655;28;20034;-76
2021/01/08 12:38:45;;;;;;;39.33;21.50;;;;;;;9.10;100.00;93695.59;10527715;28;20035;-76
2021/01/08 12:43:46;;;;;;;33.15;19.00;;;;;;;9.31;100.00;93666.66;10530270;28;20285;-76
2021/01/08 12:48:46;;;;;;;34.15;18.08;;;;;;;8.99;100.00;93686.94;10535942;28;20448;-76
2021/01/08 12:53:47;;;;;;;30.10;18.77;;;;;;;8.99;100.00;93711.03;10516847;28;20107;-77
2021/01/08 12:58:47;;;;;;;36.77;18.07;;;;;;;8.94;100.00;93701.16;10534910;28;20282;-76
2021/01/08 13:03:47;;;;;;;32.67;17.43;;;;;;;9.34;100.00;93701.69;10535490;28;20281;-76
2021/01/08 13:08:48;;;;;;;30.53;16.27;;;;;;;9.34;100.00;93701.69;10536116;28;20035;-76
2021/01/08 13:13:49;;;;;;;25.02;15.52;;;;;;;9.55;100.00;93709.44;10535145;28;20819;-77
2021/01/08 13:18:49;;;;;;;31.02;15.98;;;;;;;9.50;100.00;93694.25;10532379;28;20056;-77
2021/01/08 13:23:50;;;;;;;27.17;15.55;;;;;;;9.43;100.00;93691.09;10513968;28;20036;-75
2021/01/08 13:28:51;;;;;;;30.83;17.67;;;;;;;8.76;100.00;93691.22;10530617;28;20024;-75
2021/01/08 13:33:53;;;;;;;24.88;15.20;;;;;;;8.65;100.00;93679.84;10525061;28;20036;-75
2021/01/08 13:38:54;;;;;;;30.95;16.88;;;;;;;8.55;100.00;93680.75;10533735;28;20410;-76
2021/01/08 13:43:54;;;;;;;28.48;15.13;;;;;;;8.65;100.00;93686.00;10534310;28;20085;-76
2021/01/08 13:48:55;;;;;;;31.30;16.88;;;;;;;8.75;100.00;93678.91;10534128;28;20039;-75
2021/01/08 13:53:55;;;;;;;28.08;14.40;;;;;;;8.77;100.00;93682.13;10534265;28;20517;-78
2021/01/08 13:58:56;;;;;;;26.08;13.25;;;;;;;8.64;100.00;93678.25;10532986;28;20036;-75
2021/01/08 14:03:56;;;;;;;41.53;14.75;;;;;;;8.51;100.00;93677.06;10533387;28;20039;-75
2021/01/08 14:08:57;;;;;;;29.80;15.55;;;;;;;8.24;100.00;93686.44;10509172;28;20024;-75
2021/01/08 14:13:59;;;;;;;34.15;17.42;;;;;;;8.44;100.00;93679.25;10494271;28;20373;-76
2021/01/08 14:19:00;;;;;;;31.08;16.73;;;;;;;8.51;100.00;93675.19;10518070;28;20564;-76
2021/01/08 14:24:01;;;;;;;34.45;18.48;;;;;;;8.34;100.00;93672.97;10519097;28;20044;-76
2021/01/08 14:29:03;;;;;;;41.05;18.77;;;;;;;8.26;100.00;93668.22;10532066;28;20028;-75
2021/01/08 14:34:09;;;;;;;36.45;20.00;;;;;;;8.04;100.00;93688.22;10498115;28;20112;-75
2021/01/08 14:39:10;;;;;;;36.05;20.02;;;;;;;7.86;100.00;93692.41;10489910;28;20100;-75
2021/01/08 14:44:11;;;;;;;30.65;17.17;;;;;;;7.78;100.00;93687.66;10517399;28;20036;-77
2021/01/08 14:49:11;;;;;;;33.70;15.93;;;;;;;7.77;100.00;93704.00;10504814;28;20024;-75
2021/01/08 14:54:12;;;;;;;37.00;17.53;;;;;;;7.70;100.00;93681.06;10483245;28;20090;-76
2021/01/08 14:59:13;;;;;;;35.97;17.65;;;;;;;7.69;100.00;93694.72;10522854;28;20290;-75
2021/01/08 15:04:14;;;;;;;34.33;17.80;;;;;;;7.76;100.00;93686.34;10529837;28;20024;-76
2021/01/08 15:09:14;;;;;;;40.08;17.80;;;;;;;7.45;100.00;93687.44;10531111;28;20024;-76
2021/01/08 15:14:14;;;;;;;34.13;16.50;;;;;;;7.52;100.00;93679.88;10530775;28;20032;-76
2021/01/08 15:19:15;;;;;;;37.90;18.00;;;;;;;7.60;100.00;93680.34;10509316;28;20043;-76
2021/01/08 15:24:15;;;;;;;31.60;15.83;;;;;;;7.44;100.00;93687.72;10528744;28;20081;-77
2021/01/08 15:29:16;;;;;;;25.73;15.00;;;;;;;7.59;100.00;93690.25;10527488;28;20974;-77
2021/01/08 15:34:16;;;;;;;30.50;15.27;;;;;;;7.66;100.00;93681.88;10527941;28;20024;-76
2021/01/08 15:39:16;;;;;;;27.47;14.00;;;;;;;7.52;100.00;93708.47;10522353;28;20062;-76
2021/01/08 15:44:17;;;;;;;29.70;14.73;;;;;;;7.43;100.00;93699.47;10489305;28;20032;-76
2021/01/08 15:49:17;;;;;;;26.47;15.93;;;;;;;7.33;100.00;93724.41;10485344;28;20378;-76
2021/01/08 15:54:18;;;;;;;27.67;14.98;;;;;;;7.41;100.00;93714.97;10485389;28;20028;-76
2021/01/08 15:59:18;;;;;;;29.60;14.15;;;;;;;7.30;100.00;93711.59;10499367;28;20043;-74
2021/01/08 16:04:18;;;;;;;30.67;15.43;;;;;;;7.33;100.00;93716.38;10510306;28;20028;-74
2021/01/08 16:09:19;;;;;;;38.03;17.80;;;;;;;7.01;100.00;93722.97;10490415;28;20467;-74
2021/01/08 16:14:19;;;;;;;35.40;17.35;;;;;;;6.94;100.00;93744.63;10527801;28;20542;-75
2021/01/08 16:19:20;;;;;;;36.83;16.92;;;;;;;6.96;100.00;93739.03;10518923;28;20048;-76
2021/01/08 16:24:20;;;;;;;35.23;16.93;;;;;;;6.59;100.00;93767.75;10486073;28;20036;-76
2021/01/08 16:29:21;;;;;;;28.93;15.17;;;;;;;6.75;100.00;93759.69;10486999;28;20392;-76
2021/01/08 16:34:22;;;;;;;20.05;9.57;;;;;;;6.65;100.00;93787.22;10508657;28;20383;-77
2021/01/08 16:39:23;;;;;;;16.60;8.18;;;;;;;6.44;100.00;93770.47;10524328;28;20024;-76
2021/01/08 16:44:23;;;;;;;11.45;7.20;;;;;;;6.29;100.00;93820.13;10528137;28;20031;-76
2021/01/08 16:49:24;;;;;;;11.75;8.20;;;;;;;6.33;100.00;93815.03;10520623;28;20024;-76
2021/01/08 16:54:25;;;;;;;12.10;8.23;;;;;;;6.11;100.00;93817.97;10524746;28;20039;-76
2021/01/08 16:59:25;;;;;;;12.85;8.38;;;;;;;5.83;100.00;93841.41;10528431;28;20035;-76
2021/01/08 17:04:27;;;;;;;12.27;7.00;;;;;;;5.64;100.00;93857.94;10527796;28;20028;-76
2021/01/08 17:09:27;;;;;;;18.27;8.48;;;;;;;5.45;100.00;93870.94;10511382;28;20028;-76
2021/01/08 17:14:28;;;;;;;20.38;8.88;;;;;;;4.95;100.00;93870.50;10520261;28;20023;-75
2021/01/08 17:19:29;;;;;;;14.03;9.07;;;;;;;4.66;100.00;93899.34;10523263;28;20047;-76
2021/01/08 17:24:29;;;;;;;14.05;7.40;;;;;;;4.11;100.00;93901.31;10505756;28;20028;-75
2021/01/08 17:29:32;;;;;;;13.60;8.03;;;;;;;4.36;100.00;93914.03;10525700;28;20024;-76
2021/01/08 17:34:32;;;;;;;11.63;5.93;;;;;;;4.38;100.00;93903.13;10538171;28;20292;-76
2021/01/08 17:39:33;;;;;;;8.43;5.55;;;;;;;4.20;100.00;93941.53;10531539;28;20016;-76
2021/01/08 17:44:33;;;;;;;10.43;5.23;;;;;;;4.41;100.00;93959.28;10532559;28;20706;-77
2021/01/08 17:49:34;;;;;;;7.90;5.10;;;;;;;4.08;100.00;93971.75;10501416;28;20602;-77
2021/01/08 17:54:34;;;;;;;15.10;7.03;;;;;;;4.11;100.00;93973.91;10490755;28;20024;-76
2021/01/08 17:59:34;;;;;;;11.17;5.57;;;;;;;3.77;100.00;93983.94;10495579;28;20047;-77
2021/01/08 18:04:36;;;;;;;10.45;6.57;;;;;;;3.82;100.00;93986.63;10533204;28;20345;-76
2021/01/08 18:09:37;;;;;;;7.00;5.55;;;;;;;3.81;100.00;94014.28;10532384;28;20035;-76
2021/01/08 18:14:37;;;;;;;6.53;5.30;;;;;;;3.75;100.00;94020.59;10506455;28;20486;-76
2021/01/08 18:19:37;;;;;;;8.30;4.13;;;;;;;3.74;100.00;94019.78;10491104;28;20511;-76
2021/01/08 18:24:38;;;;;;;3.43;2.90;;;;;;;3.73;100.00;94035.97;10490810;28;20238;-76
2021/01/08 18:29:39;;;;;;;5.07;3.20;;;;;;;3.66;100.00;94030.06;10489832;28;20059;-76
2021/01/08 18:34:39;;;;;;;3.90;3.00;;;;;;;3.35;100.00;94049.06;10526893;28;20031;-76
2021/01/08 18:39:40;;;;;;;8.07;4.18;;;;;;;3.18;100.00;94072.97;10509078;28;20039;-75
2021/01/08 18:44:40;;;;;;;7.45;3.67;;;;;;;2.54;100.00;94074.09;10525343;28;20042;-76
2021/01/08 18:49:41;;;;;;;4.97;3.05;;;;;;;2.34;100.00;94084.34;10530261;28;20081;-76
2021/01/08 18:54:41;;;;;;;2.97;2.10;;;;;;;2.48;100.00;94084.84;10528348;28;20842;-76
2021/01/08 18:59:41;;;;;;;5.55;3.05;;;;;;;2.65;100.00;94095.47;10528305;28;20285;-75
2021/01/08 19:04:46;;;;;;;4.43;2.15;;;;;;;2.53;100.00;94109.59;10528577;28;20022;-76
2021/01/08 19:09:46;;;;;;;6.03;2.55;;;;;;;2.19;100.00;94114.84;10525047;28;20024;-77
2021/01/08 19:14:47;;;;;;;2.20;2.00;;;;;;;2.02;100.00;94121.91;10504623;28;20028;-76
2021/01/08 19:19:49;;;;;;;2.73;2.10;;;;;;;1.88;100.00;94138.09;10524132;28;20127;-75
2021/01/08 19:24:49;;;;;;;2.65;1.75;;;;;;;2.04;100.00;94154.28;10526983;28;20036;-75
2021/01/08 19:29:49;;;;;;;3.60;2.20;;;;;;;2.36;100.00;94161.81;10522131;28;20033;-75
2021/01/08 19:34:50;;;;;;;6.25;2.78;;;;;;;2.54;100.00;94150.19;10523074;28;20281;-75
2021/01/08 19:39:50;;;;;;;2.50;1.67;;;;;;;2.63;100.00;94148.78;10524801;28;20028;-75
2021/01/08 19:44:52;;;;;;;5.73;2.43;;;;;;;2.85;100.00;94164.03;10523841;28;20028;-75
2021/01/08 19:49:53;;;;;;;6.28;3.00;;;;;;;3.00;100.00;94164.28;10526136;28;20367;-75
2021/01/08 19:54:53;;;;;;;5.25;2.38;;;;;;;2.91;100.00;94166.50;10524870;28;20031;-74
2021/01/08 19:59:54;;;;;;;4.07;2.20;;;;;;;3.02;100.00;94151.56;10518899;28;20027;-74
2021/01/08 20:04:54;;;;;;;2.90;1.98;;;;;;;3.03;100.00;94149.75;10536873;28;20285;-74
2021/01/08 20:09:57;;;;;;;2.95;1.92;;;;;;;2.97;100.00;94145.38;10528990;28;20049;-74
2021/01/08 20:14:58;;;;;;;12.07;5.88;;;;;;;2.49;100.00;94144.81;10552591;28;20031;-74
2021/01/08 20:19:59;;;;;;;3.85;2.75;;;;;;;2.72;100.00;94183.69;10523396;28;20395;-74
2021/01/08 20:25:00;;;;;;;3.33;2.03;;;;;;;2.82;100.00;94165.31;10493722;28;20036;-74
2021/01/08 20:30:01;;;;;;;4.43;2.72;;;;;;;2.83;100.00;94168.75;10527300;28;20061;-74
2021/01/08 20:35:02;;;;;;;3.33;2.13;;;;;;;2.79;100.00;94179.06;10521175;28;20033;-74
2021/01/08 20:40:05;;;;;;;3.33;1.95;;;;;;;2.85;100.00;94156.88;10484825;28;20082;-74
2021/01/08 20:45:05;;;;;;;6.22;2.05;;;;;;;2.69;100.00;94173.56;10511834;28;20035;-74
2021/01/08 20:50:06;;;;;;;4.10;2.30;;;;;;;2.78;100.00;94193.34;10505626;28;20031;-74
2021/01/08 20:55:08;;;;;;;4.38;2.35;;;;;;;2.75;100.00;94196.50;10507256;28;20086;-74
2021/01/08 21:00:09;;;;;;;5.85;3.55;;;;;;;2.80;100.00;94193.13;10475575;28;20423;-75
2021/01/08 21:05:10;;;;;;;5.15;2.20;;;;;;;2.45;100.00;94202.81;10503070;28;20031;-74
2021/01/08 21:10:11;;;;;;;4.20;2.58;;;;;;;2.46;100.00;94200.97;10476082;28;20813;-74
2021/01/08 21:15:12;;;;;;;4.30;2.13;;;;;;;2.43;100.00;94214.69;10502286;28;20031;-74
2021/01/08 21:20:14;;;;;;;2.50;1.95;;;;;;;1.87;100.00;94202.69;10534995;28;20054;-74
2021/01/08 21:25:15;;;;;;;3.15;2.38;;;;;;;1.60;100.00;94212.16;10534645;28;20067;-75
2021/01/08 21:30:17;;;;;;;2.65;2.35;;;;;;;1.58;100.00;94220.31;10534095;28;20111;-75
2021/01/08 21:35:18;;;;;;;2.30;1.90;;;;;;;1.84;100.00;94220.91;10497273;28;20056;-75
2021/01/08 21:40:19;;;;;;;3.28;2.25;;;;;;;1.93;100.00;94232.75;10514642;28;20838;-75
2021/01/08 21:45:24;;;;;;;2.72;2.10;;;;;;;2.02;100.00;94233.22;10503291;28;20107;-75
2021/01/08 21:50:25;;;;;;;2.97;2.00;;;;;;;2.00;100.00;94233.44;10503321;28;20036;-76
2021/01/08 21:55:26;;;;;;;2.88;2.15;;;;;;;1.98;100.00;94246.13;10491545;28;20027;-76
2021/01/08 22:00:35;;;;;;;3.20;1.95;;;;;;;2.01;100.00;94250.16;10493242;28;20059;-76
2021/01/08 22:05:35;;;;;;;4.20;1.50;;;;;;;2.01;100.00;94260.75;10509869;28;20028;-76
2021/01/08 22:10:36;;;;;;;2.93;2.00;;;;;;;1.96;100.00;94263.31;10503137;28;20035;-76
2021/01/08 22:15:36;;;;;;;3.07;1.93;;;;;;;2.03;100.00;94275.38;10490769;28;20842;-75
2021/01/08 22:20:37;;;;;;;2.20;1.67;;;;;;;2.03;100.00;94280.69;10493919;28;20515;-75
2021/01/08 22:25:37;;;;;;;2.80;2.05;;;;;;;1.79;100.00;94281.75;10491415;28;20029;-76
2021/01/08 22:30:38;;;;;;;2.23;1.60;;;;;;;1.76;100.00;94290.94;10490777;28;20546;-76
2021/01/08 22:35:38;;;;;;;3.93;1.80;;;;;;;1.67;100.00;94295.75;10489381;28;20038;-76
2021/01/08 22:40:38;;;;;;;1.70;1.10;;;;;;;1.11;100.00;94313.69;10471627;28;20786;-76
2021/01/08 22:45:39;;;;;;;2.15;1.20;;;;;;;0.81;100.00;94317.13;10520553;28;20048;-76
2021/01/08 22:50:39;;;;;;;2.97;1.67;;;;;;;0.64;100.00;94324.03;10491166;28;20020;-76
2021/01/08 22:55:40;;;;;;;1.30;1.20;;;;;;;0.64;100.00;94335.44;10490779;28;20291;-76